createdAt,value
2019-01-03T00:01:42.042Z,43.10
2019-01-03T00:04:45.894Z,43.10
2019-01-03T00:07:33.299Z,43.10
2019-01-03T00:10:22.214Z,42.90
2019-01-03T00:13:09.552Z,42.80
2019-01-03T00:16:09.392Z,42.80
2019-01-03T00:19:07.093Z,42.70
2019-01-03T00:21:55.997Z,42.70
2019-01-03T00:24:43.019Z,42.80
2019-01-03T00:27:34.933Z,42.80
2019-01-03T00:30:22.381Z,43.00
2019-01-03T00:33:12.041Z,42.90
2019-01-03T00:36:15.898Z,42.80
2019-01-03T00:39:04.789Z,42.80
2019-01-03T00:41:52.338Z,42.90
2019-01-03T00:44:53.258Z,42.80
2019-01-03T00:47:48.982Z,42.90
2019-01-03T00:50:43.474Z,42.80
2019-01-03T00:53:31.066Z,42.90
2019-01-03T00:56:18.409Z,42.90
2019-01-03T00:59:07.321Z,43.00
2019-01-03T01:01:54.755Z,42.90
2019-01-03T01:04:49.502Z,42.90
2019-01-03T01:07:56.311Z,42.80
2019-01-03T01:10:51.013Z,42.70
2019-01-03T01:13:40.590Z,42.50
2019-01-03T01:16:33.005Z,42.60
2019-01-03T01:19:32.858Z,43.20
2019-01-03T01:22:20.158Z,42.90
2019-01-03T01:25:17.916Z,42.30
2019-01-03T01:28:00.894Z,42.20
2019-01-03T01:30:48.529Z,42.10
2019-01-03T01:33:43.313Z,41.90
2019-01-03T01:36:30.874Z,42.00
2019-01-03T01:39:20.574Z,42.60
2019-01-03T01:42:21.442Z,41.70
2019-01-03T01:45:10.347Z,41.70
2019-01-03T01:47:57.689Z,41.60
2019-01-03T01:50:42.073Z,41.70
2019-01-03T01:53:24.193Z,41.60
2019-01-03T01:56:08.413Z,42.30
2019-01-03T01:59:15.244Z,41.50
2019-01-03T02:02:02.785Z,41.50
2019-01-03T02:04:48.967Z,41.60
2019-01-03T02:07:40.634Z,41.60
2019-01-03T02:10:35.546Z,41.50
2019-01-03T02:13:24.450Z,41.50
2019-01-03T02:16:12.906Z,41.40
2019-01-03T02:19:19.989Z,41.40
2019-01-03T02:22:29.611Z,41.40
2019-01-03T02:25:36.427Z,41.40
2019-01-03T02:28:40.226Z,41.30
2019-01-03T02:31:29.206Z,41.30
2019-01-03T02:34:23.945Z,41.10
2019-01-03T02:37:11.262Z,41.10
2019-01-03T02:40:18.176Z,41.10
2019-01-03T02:43:05.487Z,41.30
2019-01-03T02:45:52.767Z,41.40
2019-01-03T02:48:45.891Z,41.30
2019-01-03T02:51:33.435Z,41.40
2019-01-03T02:54:15.659Z,41.20
2019-01-03T02:57:03.066Z,41.30
2019-01-03T02:59:52.030Z,41.20
2019-01-03T03:02:39.650Z,41.20
2019-01-03T03:05:40.507Z,41.20
2019-01-03T03:08:41.308Z,41.20
2019-01-03T03:11:21.475Z,41.20
2019-01-03T03:14:22.243Z,41.30
2019-01-03T03:17:11.184Z,41.20
2019-01-03T03:20:18.030Z,41.10
2019-01-03T03:23:13.878Z,41.00
2019-01-03T03:26:01.079Z,41.00
2019-01-03T03:28:48.490Z,42.00
2019-01-03T03:31:46.299Z,41.40
2019-01-03T03:34:38.238Z,41.10
2019-01-03T03:37:25.746Z,40.80
2019-01-03T03:40:17.496Z,40.70
2019-01-03T03:43:05.271Z,40.70
2019-01-03T03:46:05.424Z,40.90
2019-01-03T03:48:57.238Z,40.60
2019-01-03T03:51:46.142Z,40.40
2019-01-03T03:54:35.133Z,40.40
2019-01-03T03:57:21.263Z,40.40
2019-01-03T04:00:08.874Z,40.40
2019-01-03T04:02:56.275Z,40.30
2019-01-03T04:05:45.256Z,40.30
2019-01-03T04:08:32.631Z,40.20
2019-01-03T04:11:20.178Z,40.20
2019-01-03T04:14:08.825Z,40.30
2019-01-03T04:16:56.074Z,40.20
2019-01-03T04:19:42.282Z,40.30
2019-01-03T04:22:36.485Z,40.20
2019-01-03T04:25:25.716Z,40.30
2019-01-03T04:28:13.348Z,40.20
2019-01-03T04:30:55.474Z,40.20
2019-01-03T04:33:44.374Z,40.20
2019-01-03T04:36:25.554Z,40.10
2019-01-03T04:39:07.801Z,40.10
2019-01-03T04:41:55.181Z,40.00
2019-01-03T04:44:45.707Z,40.00
2019-01-03T04:47:23.401Z,40.00
2019-01-03T04:50:11.152Z,40.00
2019-01-03T04:53:05.755Z,40.00
2019-01-03T04:56:06.594Z,39.90
2019-01-03T04:58:55.495Z,39.90
2019-01-03T05:02:20.370Z,40.00
2019-01-03T05:05:15.155Z,39.90
2019-01-03T05:07:57.747Z,39.90
2019-01-03T05:10:49.305Z,39.90
2019-01-03T05:13:41.349Z,39.90
2019-01-03T05:16:29.106Z,39.90
2019-01-03T05:19:16.400Z,39.90
2019-01-03T05:22:03.972Z,40.10
2019-01-03T05:24:51.385Z,40.00
2019-01-03T05:27:40.565Z,40.40
2019-01-03T05:30:38.440Z,39.90
2019-01-03T05:33:25.980Z,40.00
2019-01-03T05:36:29.778Z,39.90
2019-01-03T05:39:24.724Z,40.20
2019-01-03T05:42:11.371Z,40.20
2019-01-03T05:45:00.275Z,40.20
2019-01-03T05:47:49.193Z,40.00
2019-01-03T05:50:53.286Z,39.80
2019-01-03T05:53:40.634Z,39.90
2019-01-03T05:56:28.154Z,39.90
2019-01-03T05:59:17.065Z,39.70
2019-01-03T06:02:12.668Z,39.60
2019-01-03T06:05:01.646Z,39.60
2019-01-03T06:07:50.747Z,39.40
2019-01-03T06:10:39.123Z,39.40
2019-01-03T06:13:26.476Z,39.30
2019-01-03T06:16:13.695Z,39.30
2019-01-03T06:19:05.715Z,39.20
2019-01-03T06:21:53.791Z,39.40
2019-01-03T06:24:41.441Z,39.30
2019-01-03T06:27:38.994Z,39.40
2019-01-03T06:30:34.038Z,39.50
2019-01-03T06:33:21.642Z,39.50
2019-01-03T06:36:02.043Z,39.40
2019-01-03T06:39:00.033Z,39.50
2019-01-03T06:41:49.270Z,39.90
2019-01-03T06:44:38.166Z,40.40
2019-01-03T06:47:45.258Z,40.50
2019-01-03T06:50:32.822Z,40.40
2019-01-03T06:53:32.133Z,40.40
2019-01-03T06:56:19.459Z,40.90
2019-01-03T06:59:08.745Z,40.50
2019-01-03T07:01:57.647Z,40.80
2019-01-03T07:04:46.056Z,40.70
2019-01-03T07:07:33.431Z,40.50
2019-01-03T07:10:25.145Z,40.50
2019-01-03T07:13:12.745Z,40.20
2019-01-03T07:15:59.221Z,40.10
2019-01-03T07:18:46.525Z,40.10
2019-01-03T07:21:29.090Z,40.10
2019-01-03T07:24:32.966Z,39.90
2019-01-03T07:27:20.601Z,39.80
2019-01-03T07:30:09.354Z,39.80
2019-01-03T07:32:57.977Z,39.80
2019-01-03T07:35:55.701Z,39.80
2019-01-03T07:38:39.942Z,39.60
2019-01-03T07:41:41.071Z,39.70
2019-01-03T07:44:35.712Z,39.70
2019-01-03T07:47:25.554Z,39.70
2019-01-03T07:50:17.513Z,39.60
2019-01-03T07:53:21.554Z,39.90
2019-01-03T07:56:10.454Z,39.90
2019-01-03T07:59:05.546Z,40.00
2019-01-03T08:01:57.471Z,39.90
2019-01-03T08:04:45.030Z,39.90
2019-01-03T08:07:47.404Z,40.00
2019-01-03T08:10:36.340Z,40.00
2019-01-03T08:13:23.494Z,40.10
2019-01-03T08:16:16.387Z,40.10
2019-01-03T08:18:56.066Z,40.10
2019-01-03T08:22:03.215Z,40.10
2019-01-03T08:24:57.891Z,40.10
2019-01-03T08:27:46.850Z,40.10
2019-01-03T08:30:36.753Z,40.00
2019-01-03T08:33:28.425Z,40.10
2019-01-03T08:36:35.199Z,40.10
2019-01-03T08:39:34.782Z,40.30
2019-01-03T08:42:22.038Z,40.20
2019-01-03T08:45:19.713Z,40.20
2019-01-03T08:48:26.785Z,40.20
2019-01-03T08:51:18.769Z,40.20
2019-01-03T08:54:16.719Z,40.10
2019-01-03T08:56:57.798Z,41.00
2019-01-03T08:59:37.899Z,41.60
2019-01-03T09:02:41.720Z,41.10
2019-01-03T09:05:45.801Z,41.00
2019-01-03T09:08:37.505Z,41.30
2019-01-03T09:11:36.997Z,41.90
2019-01-03T09:14:40.890Z,42.00
2019-01-03T09:17:29.797Z,42.20
2019-01-03T09:20:27.544Z,42.30
2019-01-03T09:23:14.845Z,42.20
2019-01-03T09:26:02.419Z,42.20
2019-01-03T09:28:50.021Z,42.10
2019-01-03T09:31:56.874Z,42.10
2019-01-03T09:34:57.976Z,42.20
2019-01-03T09:37:55.901Z,42.30
2019-01-03T09:40:44.821Z,42.30
2019-01-03T09:43:39.574Z,42.10
2019-01-03T09:46:09.547Z,42.20
2019-01-03T09:48:39.558Z,42.10
2019-01-03T09:51:09.543Z,42.30
2019-01-03T09:53:39.597Z,42.00
2019-01-03T09:56:09.606Z,42.10
2019-01-03T09:58:39.626Z,42.00
2019-01-03T10:01:09.593Z,42.00
2019-01-03T10:03:39.566Z,41.70
2019-01-03T10:06:09.588Z,41.50
2019-01-03T10:08:39.653Z,41.50
2019-01-03T10:11:09.708Z,41.50
2019-01-03T10:13:39.758Z,41.60
2019-01-03T10:16:09.718Z,42.20
2019-01-03T10:18:39.689Z,41.50
2019-01-03T10:21:09.669Z,41.70
2019-01-03T10:23:39.621Z,41.60
2019-01-03T10:26:09.614Z,41.80
2019-01-03T10:28:39.639Z,42.30
2019-01-03T10:31:11.299Z,42.30
2019-01-03T10:33:41.460Z,42.60
2019-01-03T10:36:11.508Z,42.80
2019-01-03T10:38:41.570Z,42.80
2019-01-03T10:41:11.527Z,42.90
2019-01-03T10:43:41.486Z,43.00
2019-01-03T10:46:11.461Z,43.00
2019-01-03T10:48:41.410Z,43.10
2019-01-03T10:51:11.405Z,43.20
2019-01-03T10:53:41.356Z,43.30
2019-01-03T10:56:11.313Z,43.20
2019-01-03T10:58:41.410Z,43.10
2019-01-03T11:01:11.379Z,43.00
2019-01-03T11:03:41.330Z,43.00
2019-01-03T11:06:11.470Z,42.80
2019-01-03T11:08:41.419Z,42.70
2019-01-03T11:11:11.377Z,42.60
2019-01-03T11:13:41.365Z,42.60
2019-01-03T11:16:11.318Z,42.60
2019-01-03T11:18:41.319Z,42.60
2019-01-03T11:21:11.277Z,42.80
2019-01-03T11:23:41.255Z,42.90
2019-01-03T11:26:11.279Z,43.00
2019-01-03T11:28:41.325Z,43.10
2019-01-03T11:31:11.374Z,43.10
2019-01-03T11:33:41.321Z,43.20
2019-01-03T11:36:11.293Z,43.00
2019-01-03T11:38:41.271Z,43.70
2019-01-03T11:41:11.230Z,44.70
2019-01-03T11:43:41.190Z,45.40
2019-01-03T11:46:11.159Z,45.50
2019-01-03T11:48:41.138Z,48.60
2019-01-03T11:51:11.170Z,49.40
2019-01-03T11:53:41.209Z,51.70
2019-01-03T11:56:11.195Z,52.80
2019-01-03T11:58:41.262Z,51.50
2019-01-03T12:01:11.326Z,54.20
2019-01-03T12:03:41.449Z,55.50
2019-01-03T12:06:11.406Z,56.30
2019-01-03T12:08:41.422Z,55.10
2019-01-03T12:11:11.494Z,55.80
2019-01-03T12:13:41.486Z,53.80
2019-01-03T12:16:11.451Z,52.70
2019-01-03T12:18:41.403Z,52.10
2019-01-03T12:21:11.360Z,51.70
2019-01-03T12:23:41.442Z,50.70
2019-01-03T12:26:11.441Z,50.10
2019-01-03T12:28:41.445Z,49.70
2019-01-03T12:31:11.394Z,49.30
2019-01-03T12:33:41.409Z,49.10
2019-01-03T12:36:11.446Z,48.90
2019-01-03T12:38:41.412Z,48.70
2019-01-03T12:41:11.439Z,48.40
2019-01-03T12:43:41.478Z,48.20
2019-01-03T12:46:11.502Z,48.10
2019-01-03T12:48:45.448Z,47.80
2019-01-03T12:51:13.174Z,47.80
2019-01-03T12:53:43.126Z,47.80
2019-01-03T12:56:13.153Z,47.50
2019-01-03T12:58:43.102Z,47.20
2019-01-03T13:01:13.091Z,47.30
2019-01-03T13:03:43.062Z,47.30
2019-01-03T13:06:13.017Z,47.20
2019-01-03T13:08:43.081Z,47.50
2019-01-03T13:11:13.079Z,47.60
2019-01-03T13:13:43.098Z,47.60
2019-01-03T13:16:13.134Z,47.60
2019-01-03T13:18:43.166Z,47.40
2019-01-03T13:21:13.123Z,47.10
2019-01-03T13:23:43.122Z,46.80
2019-01-03T13:26:13.080Z,46.40
2019-01-03T13:28:43.159Z,46.60
2019-01-03T13:31:13.129Z,47.00
2019-01-03T13:33:43.086Z,46.40
2019-01-03T13:36:13.043Z,46.30
2019-01-03T13:38:43.005Z,46.30
2019-01-03T13:41:12.990Z,45.70
2019-01-03T13:43:42.946Z,46.40
2019-01-03T13:46:12.996Z,45.40
2019-01-03T13:48:42.954Z,45.30
2019-01-03T13:51:13.009Z,45.10
2019-01-03T13:53:43.172Z,45.00
2019-01-03T13:56:13.154Z,44.80
2019-01-03T13:58:43.173Z,44.70
2019-01-03T14:01:13.133Z,44.80
2019-01-03T14:03:43.210Z,44.70
2019-01-03T14:06:13.285Z,44.70
2019-01-03T14:08:43.241Z,44.60
2019-01-03T14:11:13.191Z,44.40
2019-01-03T14:13:43.143Z,44.50
2019-01-03T14:16:13.202Z,44.10
2019-01-03T14:18:43.197Z,44.20
2019-01-03T14:21:13.177Z,44.20
2019-01-03T14:23:43.133Z,43.90
2019-01-03T14:26:13.103Z,44.10
2019-01-03T14:28:43.106Z,43.70
2019-01-03T14:31:13.115Z,43.60
2019-01-03T14:33:43.170Z,43.60
2019-01-03T14:36:13.137Z,44.30
2019-01-03T14:38:43.209Z,43.50
2019-01-03T14:41:13.189Z,43.50
2019-01-03T14:43:43.150Z,43.50
2019-01-03T14:46:13.258Z,43.50
2019-01-03T14:48:43.242Z,43.50
2019-01-03T14:51:13.248Z,43.50
2019-01-03T14:53:43.308Z,43.40
2019-01-03T14:56:13.329Z,43.90
2019-01-03T14:58:43.286Z,43.30
2019-01-03T15:01:13.238Z,43.30
2019-01-03T15:03:43.275Z,44.20
2019-01-03T15:06:13.587Z,43.80
2019-01-03T15:08:43.726Z,43.90
2019-01-03T15:11:13.707Z,44.10
2019-01-03T15:13:43.774Z,44.10
2019-01-03T15:16:13.733Z,44.20
2019-01-03T15:18:43.696Z,44.00
2019-01-03T15:21:13.826Z,43.90
2019-01-03T15:23:43.783Z,44.20
2019-01-03T15:26:13.759Z,44.20
2019-01-03T15:28:43.735Z,44.00
2019-01-03T15:31:13.705Z,43.80
2019-01-03T15:33:43.736Z,43.60
2019-01-03T15:36:13.710Z,43.60
2019-01-03T15:38:43.754Z,43.60
2019-01-03T15:41:13.717Z,43.50
2019-01-03T15:43:43.726Z,43.40
2019-01-03T15:46:13.689Z,43.30
2019-01-03T15:48:43.651Z,43.20
2019-01-03T15:51:13.733Z,43.10
2019-01-03T15:53:43.759Z,43.10
2019-01-03T15:56:13.771Z,43.00
2019-01-03T15:58:43.760Z,43.00
2019-01-03T16:01:13.786Z,42.90
2019-01-03T16:03:43.766Z,42.90
2019-01-03T16:06:13.915Z,43.00
2019-01-03T16:08:44.037Z,42.90
2019-01-03T16:11:14.005Z,43.00
2019-01-03T16:13:43.978Z,43.10
2019-01-03T16:16:14.031Z,43.00
2019-01-03T16:18:44.065Z,42.90
2019-01-03T16:21:14.077Z,42.80
2019-01-03T16:23:44.025Z,42.50
2019-01-03T16:26:14.002Z,42.70
2019-01-03T16:28:44.045Z,42.70
2019-01-03T16:31:14.003Z,43.10
2019-01-03T16:33:43.978Z,43.20
2019-01-03T16:36:13.925Z,43.40
2019-01-03T16:38:43.897Z,43.40
2019-01-03T16:41:13.868Z,43.10
2019-01-03T16:43:43.873Z,43.60
2019-01-03T16:46:13.825Z,43.70
2019-01-03T16:48:43.777Z,43.60
2019-01-03T16:51:13.769Z,43.60
2019-01-03T16:53:43.752Z,43.60
2019-01-03T16:56:13.718Z,43.70
2019-01-03T16:58:43.671Z,43.80
2019-01-03T17:01:13.623Z,43.60
2019-01-03T17:03:43.575Z,43.70
2019-01-03T17:06:13.522Z,43.60
2019-01-03T17:08:43.493Z,43.60
2019-01-03T17:11:13.451Z,43.90
2019-01-03T17:13:43.421Z,43.60
2019-01-03T17:16:13.381Z,43.60
2019-01-03T17:18:43.347Z,43.80
2019-01-03T17:21:13.302Z,43.70
2019-01-03T17:23:43.314Z,43.80
2019-01-03T17:26:13.296Z,43.80
2019-01-03T17:28:43.294Z,43.70
2019-01-03T17:31:13.336Z,43.60
2019-01-03T17:33:43.298Z,43.80
2019-01-03T17:36:13.303Z,44.00
2019-01-03T17:38:43.405Z,43.90
2019-01-03T17:41:13.410Z,43.90
2019-01-03T17:43:43.407Z,44.00
2019-01-03T17:46:13.426Z,43.80
2019-01-03T17:48:43.401Z,43.90
2019-01-03T17:51:13.457Z,43.90
2019-01-03T17:53:43.422Z,43.70
2019-01-03T17:56:13.506Z,43.80
2019-01-03T17:58:43.458Z,43.50
2019-01-03T18:01:13.439Z,43.30
2019-01-03T18:03:43.406Z,43.20
2019-01-03T18:06:13.418Z,43.10
2019-01-03T18:08:43.397Z,43.20
2019-01-03T18:11:13.360Z,43.10
2019-01-03T18:13:43.355Z,43.80
2019-01-03T18:16:13.339Z,42.90
2019-01-03T18:18:43.418Z,42.70
2019-01-03T18:21:13.390Z,42.70
2019-01-03T18:23:43.694Z,42.50
2019-01-03T18:26:13.689Z,42.50
2019-01-03T18:28:43.660Z,42.40
2019-01-03T18:31:13.623Z,42.40
2019-01-03T18:33:43.579Z,42.60
2019-01-03T18:36:13.597Z,42.50
2019-01-03T18:38:43.597Z,42.40
2019-01-03T18:41:13.682Z,42.30
2019-01-03T18:43:43.642Z,42.30
2019-01-03T18:46:13.623Z,42.20
2019-01-03T18:48:43.613Z,42.20
2019-01-03T18:51:13.587Z,42.20
2019-01-03T18:53:43.636Z,42.30
2019-01-03T18:56:13.685Z,42.10
2019-01-03T18:58:43.686Z,43.20
2019-01-03T19:01:13.663Z,42.50
2019-01-03T19:03:43.635Z,42.60
2019-01-03T19:06:13.599Z,42.30
2019-01-03T19:08:43.575Z,42.50
2019-01-03T19:11:13.563Z,42.40
2019-01-03T19:13:43.522Z,42.60
2019-01-03T19:16:13.490Z,42.80
2019-01-03T19:18:43.477Z,42.70
2019-01-03T19:21:13.466Z,42.70
2019-01-03T19:23:43.482Z,42.50
2019-01-03T19:26:13.983Z,42.70
2019-01-03T19:28:44.104Z,43.00
2019-01-03T19:31:14.106Z,43.10
2019-01-03T19:33:44.089Z,43.30
2019-01-03T19:36:14.302Z,43.10
2019-01-03T19:38:44.541Z,43.10
2019-01-03T19:41:14.704Z,43.20
2019-01-03T19:43:44.745Z,43.20
2019-01-03T19:46:14.722Z,43.10
2019-01-03T19:48:44.692Z,42.90
2019-01-03T19:51:14.826Z,42.50
2019-01-03T19:53:45.198Z,42.30
2019-01-03T19:56:15.186Z,43.00
2019-01-03T19:58:45.182Z,43.20
2019-01-03T20:01:15.187Z,42.40
2019-01-03T20:03:45.150Z,42.00
2019-01-03T20:06:15.141Z,42.80
2019-01-03T20:08:45.102Z,42.60
2019-01-03T20:11:15.204Z,42.00
2019-01-03T20:13:45.261Z,42.00
2019-01-03T20:16:15.294Z,42.00
2019-01-03T20:18:45.280Z,42.10
2019-01-03T20:21:16.177Z,42.80
2019-01-03T20:23:46.186Z,43.60
2019-01-03T20:26:16.146Z,45.70
2019-01-03T20:28:46.211Z,44.20
2019-01-03T20:31:16.239Z,43.70
2019-01-03T20:33:46.240Z,43.60
2019-01-03T20:36:16.234Z,43.50
2019-01-03T20:38:46.210Z,43.90
2019-01-03T20:41:16.284Z,43.60
2019-01-03T20:43:47.295Z,43.70
2019-01-03T20:46:17.389Z,43.80
2019-01-03T20:48:47.495Z,43.40
2019-01-03T20:51:17.500Z,43.50
2019-01-03T20:53:47.454Z,43.40
2019-01-03T20:56:17.426Z,43.40
2019-01-03T20:58:47.462Z,43.40
2019-01-03T21:01:17.474Z,43.30
2019-01-03T21:03:47.468Z,43.30
2019-01-03T21:06:17.459Z,43.10
2019-01-03T21:08:47.422Z,43.30
2019-01-03T21:11:17.394Z,43.40
2019-01-03T21:13:47.425Z,43.40
2019-01-03T21:16:17.495Z,43.50
2019-01-03T21:18:47.464Z,43.40
2019-01-03T21:21:17.636Z,43.40
2019-01-03T21:23:47.618Z,43.20
2019-01-03T21:26:17.571Z,43.10
2019-01-03T21:28:48.535Z,42.90
2019-01-03T21:31:18.506Z,42.60
2019-01-03T21:33:48.497Z,42.60
2019-01-03T21:36:18.490Z,42.60
2019-01-03T21:38:48.471Z,42.80
2019-01-03T21:41:18.422Z,42.70
2019-01-03T21:43:48.414Z,42.60
2019-01-03T21:46:18.402Z,42.80
2019-01-03T21:48:53.081Z,42.90
2019-01-03T21:51:20.149Z,42.80
2019-01-03T21:53:50.114Z,42.60
2019-01-03T21:56:20.099Z,42.60
2019-01-03T21:58:51.094Z,42.50
2019-01-03T22:01:21.062Z,42.60
2019-01-03T22:03:51.034Z,42.70
2019-01-03T22:06:21.136Z,42.90
2019-01-03T22:08:51.170Z,43.20
2019-01-03T22:11:21.264Z,43.20
2019-01-03T22:13:51.221Z,42.90
2019-01-03T22:16:21.160Z,43.60
2019-01-03T22:18:51.200Z,42.60
2019-01-03T22:21:22.151Z,42.50
2019-01-03T22:23:52.197Z,42.30
2019-01-03T22:26:22.646Z,42.00
2019-01-03T22:28:52.623Z,41.80
2019-01-03T22:31:22.653Z,42.40
2019-01-03T22:33:52.629Z,43.70
2019-01-03T22:36:22.660Z,42.90
2019-01-03T22:38:52.685Z,42.60
2019-01-03T22:41:22.734Z,43.50
2019-01-03T22:43:52.735Z,42.50
2019-01-03T22:46:22.698Z,42.00
2019-01-03T22:48:52.766Z,42.10
2019-01-03T22:51:22.724Z,42.60
2019-01-03T22:53:52.791Z,41.10
2019-01-03T22:56:22.742Z,41.20
2019-01-03T22:58:52.725Z,41.30
2019-01-03T23:01:23.573Z,41.10
2019-01-03T23:03:53.532Z,41.00
2019-01-03T23:06:23.497Z,41.00
2019-01-03T23:08:53.494Z,40.90
2019-01-03T23:11:23.455Z,40.90
2019-01-03T23:13:53.433Z,41.20
2019-01-03T23:16:23.389Z,40.90
2019-01-03T23:18:53.530Z,40.80
2019-01-03T23:21:23.631Z,40.80
2019-01-03T23:23:53.598Z,40.80
2019-01-03T23:26:23.558Z,40.80
2019-01-03T23:28:53.515Z,40.70
2019-01-03T23:31:23.465Z,40.70
2019-01-03T23:33:53.419Z,40.60
2019-01-03T23:36:23.374Z,40.80
2019-01-03T23:38:53.338Z,40.70
2019-01-03T23:41:23.361Z,40.50
2019-01-03T23:43:53.549Z,40.50
2019-01-03T23:46:23.565Z,40.40
2019-01-03T23:48:53.589Z,40.40
2019-01-03T23:51:23.854Z,40.30
2019-01-03T23:53:54.001Z,40.40
2019-01-03T23:56:24.029Z,40.30
2019-01-03T23:58:53.980Z,40.20
